Prunedale, California
Current Conditions -  °F | °C
As of 8:53 AM on Tuesday 27 Jan 2015 (Local Time) from KSNS Reporting Station
Overcast Overcast  
Wind Chill: 59°   Ceiling: 9500
Heat Index: 59°   Visibility: 10mi
Dew Point: 49°   Wind: 14mph
Humidity: 69%   Direction: 100°E
Pressure: 30.19"   Gusts: NA
Location:  36.7756°N, 121.661°W
Report Text: KSNS 271653Z 10012KT 10SM OVC095 15/09 A3019 RMK AO2 SLP230 T01500094
Loading
Personal Weather Stations






























Interactive Weather Map New forecast layout! Learn more

10-Day Weather Forecast

Advertisements
Track Severe Weather on mobile